createdAt,value
2023-05-05T00:01:55.450Z,81.08
2023-05-05T00:04:25.306Z,80.63
2023-05-05T00:06:54.214Z,80.72
2023-05-05T00:09:24.085Z,80.45
2023-05-05T00:11:53.399Z,80.73
2023-05-05T00:14:23.596Z,80.61
2023-05-05T00:16:54.819Z,80.45
2023-05-05T00:19:31.929Z,80.44
2023-05-05T00:22:01.672Z,80.17
2023-05-05T00:24:30.465Z,80.21
2023-05-05T00:26:59.251Z,80.34
2023-05-05T00:29:29.368Z,80.07
2023-05-05T00:31:58.456Z,80.03
2023-05-05T00:34:27.211Z,80.16
2023-05-05T00:36:56.676Z,80.15
2023-05-05T00:39:25.974Z,80.40
2023-05-05T00:41:56.261Z,80.25
2023-05-05T00:44:41.045Z,80.41
2023-05-05T00:47:10.858Z,80.24
2023-05-05T00:49:41.193Z,80.01
2023-05-05T00:52:11.023Z,80.14
2023-05-05T00:54:44.462Z,80.14
2023-05-05T00:57:14.355Z,79.81
2023-05-05T00:59:46.308Z,79.85
2023-05-05T01:02:15.641Z,80.13
2023-05-05T01:04:44.606Z,80.23
2023-05-05T01:07:27.546Z,80.50
2023-05-05T01:10:18.729Z,80.13
2023-05-05T01:12:59.515Z,79.78
2023-05-05T01:15:36.193Z,79.79
2023-05-05T01:18:28.560Z,79.77
2023-05-05T01:21:06.797Z,79.37
2023-05-05T01:24:18.370Z,78.86
2023-05-05T01:27:15.557Z,79.07
2023-05-05T01:30:06.666Z,79.01
2023-05-05T01:32:45.114Z,79.39
2023-05-05T01:35:20.799Z,79.48
2023-05-05T01:37:54.972Z,79.70
2023-05-05T01:40:31.350Z,79.50
2023-05-05T01:43:02.985Z,79.73
2023-05-05T01:45:36.926Z,79.10
2023-05-05T01:48:10.228Z,78.74
2023-05-05T01:50:41.797Z,78.76
2023-05-05T01:53:11.795Z,78.95
2023-05-05T01:55:41.809Z,78.86
2023-05-05T01:58:14.946Z,78.67
2023-05-05T02:00:45.566Z,78.32
2023-05-05T02:03:17.797Z,78.25
2023-05-05T02:05:51.265Z,77.99
2023-05-05T02:08:21.250Z,77.71
2023-05-05T02:10:53.683Z,77.78
2023-05-05T02:13:24.673Z,77.85
2023-05-05T02:15:56.036Z,77.65
2023-05-05T02:18:28.667Z,77.12
2023-05-05T02:20:57.357Z,77.00
2023-05-05T02:23:26.950Z,77.23
2023-05-05T02:26:04.774Z,77.36
2023-05-05T02:28:42.183Z,77.27
2023-05-05T02:31:13.843Z,76.97
2023-05-05T02:33:47.356Z,76.12
2023-05-05T02:36:21.933Z,75.55
2023-05-05T02:39:03.614Z,75.70
2023-05-05T02:41:40.235Z,76.05
2023-05-05T02:44:19.756Z,75.83
2023-05-05T02:46:49.457Z,75.61
2023-05-05T02:49:19.533Z,75.41
2023-05-05T02:51:48.748Z,75.74
2023-05-05T02:54:24.174Z,75.78
2023-05-05T02:56:56.714Z,75.73
2023-05-05T02:59:39.304Z,75.45
2023-05-05T03:02:23.052Z,75.95
2023-05-05T03:05:01.014Z,75.67
2023-05-05T03:07:39.489Z,75.39
2023-05-05T03:10:15.423Z,75.32
2023-05-05T03:12:55.347Z,75.00
2023-05-05T03:15:37.154Z,74.88
2023-05-05T03:18:10.690Z,75.02
2023-05-05T03:20:44.017Z,74.93
2023-05-05T03:23:18.372Z,74.51
2023-05-05T03:25:50.582Z,74.30
2023-05-05T03:28:41.862Z,74.09
2023-05-05T03:31:20.179Z,74.15
2023-05-05T03:33:53.489Z,73.78
2023-05-05T03:36:29.204Z,73.70
2023-05-05T03:38:59.361Z,73.62
2023-05-05T03:41:32.045Z,73.75
2023-05-05T03:44:01.398Z,73.50
2023-05-05T03:46:30.131Z,73.51
2023-05-05T03:48:58.874Z,72.79
2023-05-05T03:51:30.392Z,72.70
2023-05-05T03:53:59.979Z,72.80
2023-05-05T03:56:28.962Z,72.79
2023-05-05T03:58:57.651Z,72.55
2023-05-05T04:01:26.591Z,72.85
2023-05-05T04:03:55.432Z,72.87
2023-05-05T04:06:24.398Z,73.35
2023-05-05T04:08:54.648Z,73.49
2023-05-05T04:11:23.267Z,73.78
2023-05-05T04:13:52.446Z,73.32
2023-05-05T04:16:21.387Z,73.88
2023-05-05T04:18:50.033Z,73.80
2023-05-05T04:21:18.781Z,73.70
2023-05-05T04:23:48.465Z,73.86
2023-05-05T04:26:18.665Z,73.09
2023-05-05T04:28:48.101Z,73.63
2023-05-05T04:31:18.338Z,72.91
2023-05-05T04:33:48.077Z,72.91
2023-05-05T04:36:17.859Z,72.52
2023-05-05T04:38:46.814Z,71.94
2023-05-05T04:41:15.513Z,71.84
2023-05-05T04:43:47.084Z,71.70
2023-05-05T04:46:16.949Z,71.82
2023-05-05T04:48:45.723Z,72.01
2023-05-05T04:51:15.109Z,71.69
2023-05-05T04:53:43.828Z,71.78
2023-05-05T04:56:12.401Z,71.30
2023-05-05T04:58:41.492Z,71.28
2023-05-05T05:01:11.597Z,70.76
2023-05-05T05:03:41.194Z,70.94
2023-05-05T05:06:10.199Z,70.63
2023-05-05T05:08:38.868Z,70.29
2023-05-05T05:11:07.614Z,69.97
2023-05-05T05:13:36.282Z,69.84
2023-05-05T05:16:05.335Z,68.36
2023-05-05T05:18:35.384Z,67.93
2023-05-05T05:21:04.636Z,68.77
2023-05-05T05:23:33.379Z,69.77
2023-05-05T05:26:02.124Z,71.62
2023-05-05T05:28:31.577Z,72.92
2023-05-05T05:31:01.491Z,72.69
2023-05-05T05:33:30.310Z,74.26
2023-05-05T05:36:01.912Z,75.48
2023-05-05T05:38:30.608Z,76.75
2023-05-05T05:41:07.708Z,77.43
2023-05-05T05:43:38.436Z,76.27
2023-05-05T05:46:09.075Z,76.03
2023-05-05T05:48:39.629Z,75.88
2023-05-05T05:51:09.934Z,74.57
2023-05-05T05:53:38.712Z,74.06
2023-05-05T05:56:10.430Z,73.40
2023-05-05T05:58:39.659Z,72.68
2023-05-05T06:01:09.272Z,72.06
2023-05-05T06:03:38.230Z,71.73
2023-05-05T06:06:09.640Z,70.95
2023-05-05T06:08:38.597Z,71.05
2023-05-05T06:11:07.327Z,72.29
2023-05-05T06:13:36.140Z,73.61
2023-05-05T06:16:05.582Z,75.59
2023-05-05T06:18:34.654Z,78.45
2023-05-05T06:21:03.539Z,79.63
2023-05-05T06:23:34.998Z,80.03
2023-05-05T06:26:06.960Z,80.57
2023-05-05T06:28:35.557Z,80.30
2023-05-05T06:31:04.375Z,79.76
2023-05-05T06:33:33.019Z,79.77
2023-05-05T06:36:01.671Z,80.20
2023-05-05T06:38:30.781Z,79.76
2023-05-05T06:41:00.858Z,79.78
2023-05-05T06:43:30.542Z,80.29
2023-05-05T06:46:01.950Z,79.56
2023-05-05T06:48:30.707Z,78.37
2023-05-05T06:50:59.349Z,77.49
2023-05-05T06:53:27.933Z,78.33
2023-05-05T06:55:56.576Z,76.44
2023-05-05T06:58:26.722Z,73.92
2023-05-05T07:00:55.736Z,75.03
2023-05-05T07:03:24.361Z,76.88
2023-05-05T07:05:53.982Z,78.54
2023-05-05T07:08:22.822Z,75.46
2023-05-05T07:10:51.520Z,75.26
2023-05-05T07:13:22.993Z,73.47
2023-05-05T07:15:53.504Z,74.45
2023-05-05T07:18:23.162Z,71.38
2023-05-05T07:20:51.877Z,70.09
2023-05-05T07:23:20.621Z,72.18
2023-05-05T07:25:49.810Z,72.85
2023-05-05T07:28:18.854Z,73.46
2023-05-05T07:30:47.462Z,72.50
2023-05-05T07:33:18.624Z,71.99
2023-05-05T07:35:47.326Z,72.64
2023-05-05T07:38:16.175Z,72.31
2023-05-05T07:40:44.812Z,71.89
2023-05-05T07:43:13.463Z,70.67
2023-05-05T07:45:42.105Z,70.90
2023-05-05T07:48:10.962Z,70.84
2023-05-05T07:50:41.275Z,71.01
2023-05-05T07:53:14.496Z,69.45
2023-05-05T07:55:43.924Z,67.52
2023-05-05T07:58:12.501Z,68.31
2023-05-05T08:00:41.445Z,65.30
2023-05-05T08:03:11.897Z,66.13
2023-05-05T08:05:42.575Z,67.59
2023-05-05T08:08:16.273Z,69.56
2023-05-05T08:10:45.200Z,68.22
2023-05-05T08:13:14.055Z,67.06
2023-05-05T08:15:42.702Z,68.61
2023-05-05T08:18:11.374Z,67.23
2023-05-05T08:20:41.384Z,67.35
2023-05-05T08:23:09.984Z,66.10
2023-05-05T08:25:38.570Z,66.35
2023-05-05T08:28:07.164Z,67.03
2023-05-05T08:30:40.918Z,65.98
2023-05-05T08:33:09.730Z,63.41
2023-05-05T08:35:38.490Z,62.35
2023-05-05T08:38:08.736Z,65.29
2023-05-05T08:40:41.109Z,63.32
2023-05-05T08:43:09.867Z,60.70
2023-05-05T08:45:42.236Z,60.47
2023-05-05T08:48:12.289Z,59.57
2023-05-05T08:50:43.967Z,57.90
2023-05-05T08:53:18.703Z,58.45
2023-05-05T08:55:52.856Z,58.20
2023-05-05T08:58:24.162Z,58.32
2023-05-05T09:00:53.794Z,58.09
2023-05-05T09:03:23.377Z,58.21
2023-05-05T09:05:52.961Z,59.87
2023-05-05T09:08:23.820Z,59.05
2023-05-05T09:10:53.981Z,59.62
2023-05-05T09:13:23.264Z,57.60
2023-05-05T09:15:51.886Z,57.59
2023-05-05T09:18:21.303Z,57.37
2023-05-05T09:20:50.487Z,56.34
2023-05-05T09:23:22.380Z,55.54
2023-05-05T09:26:08.903Z,56.51
2023-05-05T09:28:38.590Z,55.13
2023-05-05T09:31:16.261Z,56.60
2023-05-05T09:33:45.549Z,56.39
2023-05-05T09:36:14.190Z,58.68
2023-05-05T09:38:44.265Z,51.40
2023-05-05T09:41:12.903Z,53.32
2023-05-05T09:43:52.980Z,51.53
2023-05-05T09:46:21.977Z,53.45
2023-05-05T09:48:50.756Z,51.95
2023-05-05T09:51:32.030Z,49.15
2023-05-05T09:54:02.237Z,49.27
2023-05-05T09:56:40.367Z,51.92
2023-05-05T09:59:12.804Z,52.64
2023-05-05T10:01:43.523Z,55.06
2023-05-05T10:04:26.098Z,57.11
2023-05-05T10:06:55.929Z,59.78
2023-05-05T10:09:26.809Z,58.93
2023-05-05T10:11:59.071Z,59.08
2023-05-05T10:14:32.923Z,53.95
2023-05-05T10:17:03.467Z,53.27
2023-05-05T10:19:36.175Z,50.18
2023-05-05T10:22:09.379Z,48.90
2023-05-05T10:24:44.505Z,48.00
2023-05-05T10:27:18.439Z,47.37
2023-05-05T10:29:56.135Z,47.21
2023-05-05T10:35:03.861Z,46.73
2023-05-05T10:37:34.410Z,46.76
2023-05-05T10:40:05.603Z,47.18
2023-05-05T10:42:35.116Z,48.00
2023-05-05T10:45:04.232Z,47.84
2023-05-05T10:47:35.146Z,47.63
2023-05-05T10:50:12.436Z,47.68
2023-05-05T10:52:51.611Z,46.45
2023-05-05T10:55:33.215Z,47.32
2023-05-05T10:58:02.055Z,48.42
2023-05-05T11:00:53.065Z,51.12
2023-05-05T11:03:25.206Z,55.76
2023-05-05T11:06:13.821Z,57.15
2023-05-05T11:08:44.309Z,57.45
2023-05-05T11:11:14.855Z,59.36
2023-05-05T11:13:43.633Z,58.46
2023-05-05T11:16:49.980Z,58.90
2023-05-05T11:19:49.016Z,58.90
2023-05-05T11:22:17.864Z,59.82
2023-05-05T11:24:47.352Z,59.46
2023-05-05T11:27:17.560Z,58.40
2023-05-05T11:30:12.785Z,59.78
2023-05-05T11:32:42.209Z,58.46
2023-05-05T11:35:14.826Z,56.63
2023-05-05T11:37:44.138Z,55.33
2023-05-05T11:40:25.163Z,54.44
2023-05-05T11:43:07.437Z,53.72
2023-05-05T11:45:36.973Z,51.28
2023-05-05T11:48:28.226Z,49.60
2023-05-05T11:50:58.181Z,49.49
2023-05-05T11:53:27.350Z,50.51
2023-05-05T11:56:08.603Z,49.12
2023-05-05T11:58:39.208Z,49.70
2023-05-05T12:01:09.298Z,49.39
2023-05-05T12:03:39.169Z,49.76
2023-05-05T12:06:09.631Z,50.00
2023-05-05T12:08:39.003Z,50.84
2023-05-05T12:11:10.698Z,53.33
2023-05-05T12:13:41.690Z,53.97
2023-05-05T12:16:11.174Z,55.81
2023-05-05T12:18:40.767Z,56.08
2023-05-05T12:21:17.335Z,55.68
2023-05-05T12:23:47.198Z,55.74
2023-05-05T12:26:27.893Z,55.31
2023-05-05T12:28:58.348Z,54.48
2023-05-05T12:31:37.075Z,53.32
2023-05-05T12:34:07.865Z,51.18
2023-05-05T12:36:38.240Z,50.83
2023-05-05T12:39:07.213Z,51.24
2023-05-05T12:41:37.754Z,49.87
2023-05-05T12:44:08.028Z,48.49
2023-05-05T12:46:47.226Z,48.30
2023-05-05T12:49:16.654Z,47.61
2023-05-05T12:51:55.563Z,47.15
2023-05-05T12:54:31.629Z,48.18
2023-05-05T12:57:00.289Z,49.10
2023-05-05T12:59:33.229Z,49.05
2023-05-05T13:02:07.115Z,49.02
2023-05-05T13:04:48.707Z,47.49
2023-05-05T13:07:19.703Z,47.85
2023-05-05T13:09:49.604Z,48.91
2023-05-05T13:12:19.866Z,48.00
2023-05-05T13:14:49.903Z,48.50
2023-05-05T13:17:18.834Z,48.11
2023-05-05T13:19:47.506Z,50.16
2023-05-05T13:22:16.419Z,56.23
2023-05-05T13:25:07.223Z,59.08
2023-05-05T13:27:35.284Z,61.37
2023-05-05T13:30:06.322Z,60.51
2023-05-05T13:32:36.109Z,60.95
2023-05-05T13:35:04.973Z,63.70
2023-05-05T13:37:33.761Z,64.24
2023-05-05T13:40:02.473Z,65.28
2023-05-05T13:42:32.399Z,65.01
2023-05-05T13:45:01.077Z,64.28
2023-05-05T13:47:34.115Z,65.58
2023-05-05T13:50:03.086Z,66.26
2023-05-05T13:52:33.299Z,67.23
2023-05-05T13:55:02.865Z,69.23
2023-05-05T13:57:32.692Z,68.51
2023-05-05T14:00:01.644Z,68.13
2023-05-05T14:02:34.727Z,63.29
2023-05-05T14:05:03.523Z,63.34
2023-05-05T14:07:32.792Z,63.09
2023-05-05T14:10:01.443Z,62.90
2023-05-05T14:12:32.887Z,61.02
2023-05-05T14:15:01.684Z,59.46
2023-05-05T14:17:34.996Z,59.29
2023-05-05T14:20:04.058Z,59.04
2023-05-05T14:22:34.103Z,58.82
2023-05-05T14:25:03.033Z,59.04
2023-05-05T14:27:33.346Z,60.07
2023-05-05T14:30:02.013Z,60.80
2023-05-05T14:32:35.709Z,61.26
2023-05-05T14:35:05.204Z,61.39
2023-05-05T14:37:35.441Z,61.26
2023-05-05T14:40:05.776Z,61.42
2023-05-05T14:42:34.873Z,60.20
2023-05-05T14:45:05.683Z,60.36
2023-05-05T14:47:36.603Z,61.23
2023-05-05T14:50:08.829Z,61.25
2023-05-05T14:52:39.113Z,60.80
2023-05-05T14:55:09.599Z,60.47
2023-05-05T14:57:39.015Z,61.50
2023-05-05T15:00:11.013Z,62.65
2023-05-05T15:02:41.247Z,63.44
2023-05-05T15:05:10.806Z,64.35
2023-05-05T15:07:40.190Z,64.79
2023-05-05T15:10:10.331Z,65.66
2023-05-05T15:12:39.066Z,64.19
2023-05-05T15:15:09.660Z,64.59
2023-05-05T15:17:38.934Z,64.13
2023-05-05T15:20:10.677Z,63.87
2023-05-05T15:22:39.350Z,62.70
2023-05-05T15:25:12.390Z,62.87
2023-05-05T15:27:41.267Z,62.19
2023-05-05T15:30:11.516Z,59.55
2023-05-05T15:32:40.336Z,58.43
2023-05-05T15:35:10.869Z,58.04
2023-05-05T15:37:39.604Z,57.91
2023-05-05T15:40:10.268Z,56.79
2023-05-05T15:42:39.253Z,55.76
2023-05-05T15:45:12.106Z,55.20
2023-05-05T15:47:40.857Z,53.60
2023-05-05T15:50:12.167Z,52.66
2023-05-05T15:52:41.023Z,52.60
2023-05-05T15:55:11.674Z,52.32
2023-05-05T15:57:40.524Z,52.40
2023-05-05T16:00:11.342Z,52.49
2023-05-05T16:02:40.139Z,51.51
2023-05-05T16:05:11.276Z,51.73
2023-05-05T16:07:40.271Z,52.25
2023-05-05T16:10:11.413Z,52.02
2023-05-05T16:12:40.236Z,52.58
2023-05-05T16:15:10.595Z,52.27
2023-05-05T16:17:39.879Z,52.34
2023-05-05T16:20:12.279Z,51.98
2023-05-05T16:22:41.170Z,51.89
2023-05-05T16:25:11.193Z,51.93
2023-05-05T16:27:40.227Z,52.14
2023-05-05T16:30:12.837Z,52.78
2023-05-05T16:32:41.660Z,53.32
2023-05-05T16:35:12.255Z,53.80
2023-05-05T16:37:41.201Z,54.05
2023-05-05T16:40:11.764Z,54.46
2023-05-05T16:42:41.013Z,54.28
2023-05-05T16:45:12.243Z,54.35
2023-05-05T16:47:40.973Z,54.60
2023-05-05T16:50:12.296Z,54.65
2023-05-05T16:52:40.938Z,54.72
2023-05-05T16:55:10.941Z,55.16
2023-05-05T16:57:39.882Z,55.91
2023-05-05T17:00:12.227Z,56.35
2023-05-05T17:02:40.970Z,56.85
2023-05-05T17:05:11.952Z,56.98
2023-05-05T17:07:40.928Z,57.56
2023-05-05T17:10:11.219Z,58.59
2023-05-05T17:12:39.939Z,58.62
2023-05-05T17:15:13.044Z,59.44
2023-05-05T17:17:43.099Z,59.47
2023-05-05T17:20:14.526Z,59.12
2023-05-05T17:22:43.371Z,59.00
2023-05-05T17:25:12.496Z,58.43
2023-05-05T17:27:41.875Z,58.50
2023-05-05T17:30:12.016Z,58.41
2023-05-05T17:32:40.756Z,58.53
2023-05-05T17:35:10.954Z,58.56
2023-05-05T17:37:43.864Z,58.63
2023-05-05T17:40:13.508Z,58.62
2023-05-05T17:42:42.456Z,58.75
2023-05-05T17:45:12.914Z,59.20
2023-05-05T17:47:41.742Z,59.82
2023-05-05T17:50:11.966Z,59.64
2023-05-05T17:52:43.903Z,59.39
2023-05-05T17:55:12.938Z,59.57
2023-05-05T17:57:51.047Z,59.37
2023-05-05T18:00:21.538Z,59.78
2023-05-05T18:02:50.708Z,59.85
2023-05-05T18:05:19.731Z,59.99
2023-05-05T18:07:49.957Z,60.49
2023-05-05T18:10:18.846Z,60.57
2023-05-05T18:12:48.705Z,61.30
2023-05-05T18:15:17.436Z,60.58
2023-05-05T18:17:46.159Z,60.18
2023-05-05T18:20:16.071Z,58.92
2023-05-05T18:22:45.529Z,58.25
2023-05-05T18:25:15.693Z,57.56
2023-05-05T18:27:44.846Z,56.68
2023-05-05T18:30:14.366Z,56.21
2023-05-05T18:32:43.082Z,55.51
2023-05-05T18:35:12.108Z,55.51
2023-05-05T18:37:41.616Z,55.40
2023-05-05T18:40:11.801Z,54.94
2023-05-05T18:42:41.984Z,53.94
2023-05-05T18:45:12.802Z,53.08
2023-05-05T18:47:41.679Z,53.25
2023-05-05T18:50:11.182Z,53.54
2023-05-05T18:52:39.976Z,53.43
2023-05-05T18:55:09.673Z,53.58
2023-05-05T18:57:38.646Z,54.03
2023-05-05T19:00:11.894Z,53.54
2023-05-05T19:02:40.715Z,53.51
2023-05-05T19:05:10.644Z,53.11
2023-05-05T19:07:39.741Z,53.03
2023-05-05T19:10:10.732Z,52.55
2023-05-05T19:12:39.883Z,52.86
2023-05-05T19:15:11.653Z,53.04
2023-05-05T19:17:41.140Z,52.97
2023-05-05T19:20:11.435Z,53.20
2023-05-05T19:22:40.131Z,53.16
2023-05-05T19:25:09.676Z,53.40
2023-05-05T19:27:38.647Z,53.41
2023-05-05T19:30:11.060Z,53.39
2023-05-05T19:32:39.900Z,53.35
2023-05-05T19:35:10.526Z,53.41
2023-05-05T19:37:39.600Z,53.47
2023-05-05T19:40:10.360Z,53.52
2023-05-05T19:42:39.212Z,53.42
2023-05-05T19:45:10.508Z,53.35
2023-05-05T19:47:39.202Z,53.42
2023-05-05T19:50:08.982Z,53.09
2023-05-05T19:52:38.499Z,53.29
2023-05-05T19:55:10.479Z,53.26
2023-05-05T19:57:40.246Z,53.34
2023-05-05T20:00:12.531Z,53.56
2023-05-05T20:02:42.092Z,54.53
2023-05-05T20:05:13.968Z,55.30
2023-05-05T20:07:42.879Z,55.82
2023-05-05T20:10:14.277Z,55.53
2023-05-05T20:12:49.169Z,55.63
2023-05-05T20:15:22.194Z,55.47
2023-05-05T20:17:51.396Z,55.45
2023-05-05T20:20:23.372Z,56.15
2023-05-05T20:22:52.088Z,57.27
2023-05-05T20:25:20.905Z,58.59
2023-05-05T20:27:49.691Z,58.71
2023-05-05T20:30:20.183Z,58.05
2023-05-05T20:32:48.941Z,57.13
2023-05-05T20:35:17.768Z,56.57
2023-05-05T20:37:46.418Z,57.34
2023-05-05T20:40:15.409Z,58.25
2023-05-05T20:42:44.146Z,60.04
2023-05-05T20:45:13.603Z,60.64
2023-05-05T20:47:43.751Z,61.38
2023-05-05T20:50:13.153Z,61.83
2023-05-05T20:52:42.211Z,60.32
2023-05-05T20:55:11.278Z,59.90
2023-05-05T20:57:40.306Z,62.73
2023-05-05T21:00:11.468Z,63.47
2023-05-05T21:02:40.681Z,63.12
2023-05-05T21:05:11.874Z,61.98
2023-05-05T21:07:40.947Z,60.98
2023-05-05T21:10:11.313Z,61.33
2023-05-05T21:12:42.260Z,60.95
2023-05-05T21:15:12.930Z,61.53
2023-05-05T21:17:42.880Z,61.18
2023-05-05T21:20:14.377Z,60.95
2023-05-05T21:22:43.353Z,60.78
2023-05-05T21:25:14.968Z,60.95
2023-05-05T21:27:44.222Z,60.92
2023-05-05T21:30:14.078Z,60.92
2023-05-05T21:32:43.551Z,60.78
2023-05-05T21:35:13.672Z,60.85
2023-05-05T21:37:42.782Z,60.70
2023-05-05T21:40:14.032Z,60.94
2023-05-05T21:42:43.770Z,60.62
2023-05-05T21:45:13.557Z,60.52
2023-05-05T21:47:42.345Z,60.28
2023-05-05T21:50:13.784Z,60.46
2023-05-05T21:52:42.495Z,60.36
2023-05-05T21:55:11.464Z,60.87
2023-05-05T21:57:40.381Z,60.87
2023-05-05T22:00:16.692Z,61.07
2023-05-05T22:02:47.001Z,61.28
2023-05-05T22:05:17.126Z,61.61
2023-05-05T22:07:46.121Z,61.21
2023-05-05T22:10:14.842Z,61.56
2023-05-05T22:12:43.641Z,61.55
2023-05-05T22:15:13.073Z,61.63
2023-05-05T22:17:42.163Z,62.16
2023-05-05T22:20:11.931Z,61.93
2023-05-05T22:22:42.034Z,62.02
2023-05-05T22:25:11.735Z,62.17
2023-05-05T22:27:41.079Z,62.15
2023-05-05T22:30:11.401Z,62.01
2023-05-05T22:32:40.352Z,62.30
2023-05-05T22:35:10.565Z,62.15
2023-05-05T22:37:39.416Z,62.19
2023-05-05T22:40:11.043Z,62.69
2023-05-05T22:42:39.840Z,62.70
2023-05-05T22:45:10.487Z,62.73
2023-05-05T22:47:39.491Z,62.80
2023-05-05T22:50:10.147Z,63.01
2023-05-05T22:52:38.846Z,63.11
2023-05-05T22:55:10.019Z,63.00
2023-05-05T22:57:38.946Z,63.25
2023-05-05T23:00:10.768Z,63.02
2023-05-05T23:02:40.194Z,63.47
2023-05-05T23:05:10.117Z,63.41
2023-05-05T23:07:39.254Z,63.50
2023-05-05T23:10:10.975Z,63.62
2023-05-05T23:12:39.723Z,63.73
2023-05-05T23:15:10.264Z,63.59
2023-05-05T23:17:39.229Z,63.73
2023-05-05T23:20:12.155Z,63.81
2023-05-05T23:22:41.138Z,64.01
2023-05-05T23:25:12.617Z,63.94
2023-05-05T23:27:42.013Z,64.32
2023-05-05T23:30:12.022Z,64.26
2023-05-05T23:32:40.908Z,64.66
2023-05-05T23:35:11.222Z,64.55
2023-05-05T23:37:40.218Z,64.49
2023-05-05T23:40:12.276Z,64.55
2023-05-05T23:42:41.153Z,64.94
2023-05-05T23:45:11.892Z,65.21
2023-05-05T23:47:40.973Z,65.35
2023-05-05T23:50:11.129Z,65.00
2023-05-05T23:52:39.831Z,65.01
2023-05-05T23:55:11.570Z,65.31
2023-05-05T23:57:40.627Z,65.39
